Time;durP1;ratioP1;P1;durP2;ratioP2;P2;SDS_P1;SDS_P2;PMS_P1;PMS_P2;Temp;Humidity;BMP_temperature;BMP_pressure;BME280_temperature;BME280_humidity;BME280_pressure;Samples;Min_cycle;Max_cycle;Signal;HPM_P1;HPM_P2
2022/12/11 00:00:42;;;;;;;20.42;5.20;;;;;;;15.70;100.00;98911.25;5028508;28;20100;-79
2022/12/11 00:03:08;;;;;;;26.30;7.07;;;;;;;15.68;100.00;98906.09;5028327;28;20026;-78
2022/12/11 00:05:34;;;;;;;24.55;6.10;;;;;;;15.71;100.00;98906.94;5028243;28;20036;-78
2022/12/11 00:07:59;;;;;;;22.70;5.97;;;;;;;15.55;100.00;98880.19;5028529;28;20486;-77
2022/12/11 00:10:25;;;;;;;19.70;5.72;;;;;;;15.68;100.00;98887.88;5028458;28;20060;-78
2022/12/11 00:12:50;;;;;;;26.52;6.40;;;;;;;15.68;100.00;98877.47;5026955;28;20424;-78
2022/12/11 00:15:17;;;;;;;15.63;5.78;;;;;;;15.58;100.00;98851.56;5011034;28;20033;-77
2022/12/11 00:17:42;;;;;;;26.90;6.03;;;;;;;15.47;100.00;98836.06;5009855;28;20037;-76
2022/12/11 00:20:08;;;;;;;29.15;6.93;;;;;;;15.42;100.00;98840.44;5010783;28;20029;-77
2022/12/11 00:22:34;;;;;;;22.50;5.82;;;;;;;15.49;100.00;98835.16;5009780;28;20038;-78
2022/12/11 00:24:59;;;;;;;25.67;6.03;;;;;;;15.60;100.00;98857.59;5011475;28;20376;-77
2022/12/11 00:27:25;;;;;;;21.50;6.10;;;;;;;15.56;100.00;98856.78;5010968;28;20513;-77
2022/12/11 00:29:50;;;;;;;21.50;5.65;;;;;;;15.47;100.00;98852.50;5011086;28;20388;-78
2022/12/11 00:32:16;;;;;;;20.88;5.93;;;;;;;15.50;100.00;98859.44;5009507;28;20030;-77
2022/12/11 00:34:41;;;;;;;30.85;6.32;;;;;;;15.67;100.00;98875.75;5010927;28;20034;-77
2022/12/11 00:37:06;;;;;;;25.80;5.88;;;;;;;15.42;100.00;98823.09;5010896;28;20397;-77
2022/12/11 00:39:32;;;;;;;11.48;3.13;;;;;;;15.56;100.00;98825.56;5003402;28;20477;-78
2022/12/11 00:41:57;;;;;;;25.13;5.20;;;;;;;15.74;100.00;98842.75;5002852;28;20029;-77
2022/12/11 00:44:23;;;;;;;24.40;6.43;;;;;;;15.76;100.00;98837.50;5010637;28;20057;-78
2022/12/11 00:46:49;;;;;;;24.52;5.13;;;;;;;15.80;100.00;98831.38;5010781;28;20060;-78
2022/12/11 00:49:14;;;;;;;25.42;5.38;;;;;;;15.78;100.00;98792.38;5010027;28;20037;-77
2022/12/11 00:51:39;;;;;;;23.13;4.47;;;;;;;15.87;100.00;98770.63;5007959;28;20041;-77
2022/12/11 00:54:05;;;;;;;17.50;4.45;;;;;;;15.94;100.00;98774.88;4999755;28;20604;-78
2022/12/11 00:56:31;;;;;;;14.57;4.88;;;;;;;15.94;100.00;98767.06;4987875;28;20045;-77
2022/12/11 00:58:56;;;;;;;20.98;5.72;;;;;;;15.72;100.00;98723.97;5000871;28;20481;-76
2022/12/11 01:01:24;;;;;;;23.33;5.25;;;;;;;15.84;100.00;98735.09;4989178;28;20049;-76
2022/12/11 01:03:50;;;;;;;20.60;4.72;;;;;;;15.82;100.00;98707.38;4987973;28;20109;-76
2022/12/11 01:06:19;;;;;;;16.45;4.63;;;;;;;15.82;100.00;98691.75;4987894;28;20054;-77
2022/12/11 01:08:45;;;;;;;15.63;3.97;;;;;;;15.77;100.00;98702.19;4988699;28;20096;-77
2022/12/11 01:11:13;;;;;;;11.77;3.35;;;;;;;15.78;100.00;98695.25;4988674;28;20133;-77
2022/12/11 01:13:39;;;;;;;17.88;5.15;;;;;;;15.75;100.00;98695.28;4988629;28;20041;-77
2022/12/11 01:16:08;;;;;;;17.02;4.65;;;;;;;15.72;100.00;98677.97;4988583;28;20031;-77
2022/12/11 01:18:33;;;;;;;20.00;5.53;;;;;;;15.66;100.00;98663.31;4988558;28;20097;-76
2022/12/11 01:20:59;;;;;;;16.40;4.45;;;;;;;15.68;100.00;98643.34;4988471;28;20469;-76
2022/12/11 01:23:24;;;;;;;15.95;4.78;;;;;;;15.79;100.00;98647.56;4974525;28;20041;-77
2022/12/11 01:25:50;;;;;;;18.30;4.38;;;;;;;15.83;100.00;98649.25;4971501;28;20030;-77
2022/12/11 01:28:16;;;;;;;12.00;3.15;;;;;;;15.93;100.00;98663.84;4971347;28;20019;-77
2022/12/11 01:30:42;;;;;;;15.13;3.95;;;;;;;16.05;100.00;98677.56;4970099;28;20478;-77
2022/12/11 01:33:08;;;;;;;15.68;3.63;;;;;;;16.12;100.00;98677.44;4971653;28;20034;-77
2022/12/11 01:35:33;;;;;;;15.70;4.35;;;;;;;16.10;100.00;98673.16;4971648;28;20112;-75
2022/12/11 01:37:59;;;;;;;14.40;4.28;;;;;;;16.12;100.00;98674.00;4971534;28;20074;-77
2022/12/11 01:40:25;;;;;;;17.35;4.85;;;;;;;16.07;100.00;98665.41;4971361;28;20532;-76
2022/12/11 01:42:50;;;;;;;14.13;3.22;;;;;;;16.04;100.00;98663.72;4971461;28;20078;-77
2022/12/11 01:45:15;;;;;;;11.95;3.55;;;;;;;16.08;100.00;98678.38;4970222;28;20051;-77
2022/12/11 01:47:42;;;;;;;13.07;3.20;;;;;;;16.00;100.00;98652.47;4971416;28;20023;-77
2022/12/11 01:50:07;;;;;;;11.35;3.30;;;;;;;15.99;100.00;98692.41;4971882;28;20089;-77
2022/12/11 01:52:33;;;;;;;13.35;3.50;;;;;;;15.79;100.00;98655.34;4971439;28;20465;-77
2022/12/11 01:54:58;;;;;;;14.32;3.20;;;;;;;15.73;100.00;98658.88;4970107;28;20460;-77
2022/12/11 01:57:24;;;;;;;13.00;4.00;;;;;;;15.84;100.00;98684.81;4971133;28;20057;-77
2022/12/11 01:59:49;;;;;;;14.20;4.43;;;;;;;15.96;100.00;98699.38;4971193;28;20027;-77
2022/12/11 02:02:24;;;;;;;13.82;3.85;;;;;;;15.95;100.00;98706.34;4971089;28;20034;-77
2022/12/11 02:04:49;;;;;;;14.95;5.10;;;;;;;15.93;100.00;98702.88;4971552;28;20043;-77
2022/12/11 02:07:15;;;;;;;22.60;4.80;;;;;;;15.89;100.00;98683.00;4971626;28;20409;-77
2022/12/11 02:09:44;;;;;;;16.38;4.53;;;;;;;16.08;100.00;98694.00;4975117;28;20452;-76
2022/12/11 02:12:31;;;;;;;15.40;4.55;;;;;;;16.10;100.00;98707.00;4983609;28;20061;-76
2022/12/11 02:15:39;;;;;;;19.08;5.93;;;;;;;16.05;100.00;98708.81;4994307;28;20031;-76
2022/12/11 02:18:23;;;;;;;17.95;4.55;;;;;;;16.01;100.00;98693.25;4972443;28;20035;-76
2022/12/11 02:20:51;;;;;;;15.82;4.80;;;;;;;15.96;100.00;98683.75;4972170;28;20038;-77
2022/12/11 02:23:37;;;;;;;18.42;4.47;;;;;;;15.99;100.00;98666.38;4972322;28;20035;-76
2022/12/11 02:26:35;;;;;;;21.60;4.88;;;;;;;16.00;100.00;98673.31;4972091;28;20054;-77
2022/12/11 02:29:07;;;;;;;21.92;5.03;;;;;;;15.66;100.00;98608.69;4972263;28;20038;-77
2022/12/11 02:31:48;;;;;;;19.27;5.60;;;;;;;16.01;100.00;98672.41;4955967;28;20027;-76
2022/12/11 02:34:22;;;;;;;21.95;5.97;;;;;;;16.00;100.00;98675.06;4956796;28;20038;-76
2022/12/11 02:36:51;;;;;;;19.20;4.90;;;;;;;15.99;100.00;98694.16;4953733;28;20038;-77
2022/12/11 02:39:19;;;;;;;18.20;4.90;;;;;;;16.00;100.00;98696.72;4971868;28;20039;-77
2022/12/11 02:41:48;;;;;;;22.40;6.57;;;;;;;16.01;100.00;98702.78;4965072;28;20042;-77
2022/12/11 02:44:16;;;;;;;23.13;5.53;;;;;;;15.97;100.00;98686.34;4952420;29;20135;-76
2022/12/11 02:46:43;;;;;;;18.92;5.63;;;;;;;16.06;100.00;98694.91;4952665;28;20046;-77
2022/12/11 02:49:11;;;;;;;30.52;6.22;;;;;;;16.06;100.00;98685.34;4952531;28;20564;-77
2022/12/11 02:51:40;;;;;;;18.98;5.75;;;;;;;15.87;100.00;98648.31;4960194;28;20100;-77
2022/12/11 02:54:09;;;;;;;;;;;;;;;16.00;100.00;98681.09;4974478;28;20504;-77
2022/12/11 02:56:45;;;;;;;20.03;4.53;;;;;;;16.02;100.00;98673.28;4974024;28;20403;-77
2022/12/11 02:59:20;;;;;;;16.50;4.78;;;;;;;16.10;100.00;98663.63;4973978;28;20575;-77
2022/12/11 03:01:46;;;;;;;20.70;4.03;;;;;;;16.17;100.00;98667.88;4987552;28;20073;-77
2022/12/11 03:04:12;;;;;;;15.10;3.58;;;;;;;16.28;100.00;98638.19;4993403;28;20108;-76
2022/12/11 03:06:52;;;;;;;20.15;3.55;;;;;;;16.27;100.00;98634.69;4993135;28;20030;-77
2022/12/11 03:09:19;;;;;;;16.15;3.53;;;;;;;16.38;100.00;98628.47;4993168;28;20034;-77
2022/12/11 03:11:45;;;;;;;20.00;4.05;;;;;;;16.39;100.00;98641.47;4993263;28;20045;-77
2022/12/11 03:14:11;;;;;;;15.95;3.88;;;;;;;16.57;100.00;98621.22;4993325;28;20030;-76
2022/12/11 03:16:55;;;;;;;15.50;3.10;;;;;;;16.58;100.00;98634.19;4993489;28;20037;-77
2022/12/11 03:19:58;;;;;;;17.52;4.07;;;;;;;16.46;100.00;98606.63;4992319;28;20044;-77
2022/12/11 03:22:29;;;;;;;13.48;3.13;;;;;;;16.59;100.00;98619.44;4990591;28;20124;-75
2022/12/11 03:25:01;;;;;;;11.85;3.55;;;;;;;16.55;100.00;98620.38;4981402;28;20038;-77
2022/12/11 03:27:30;;;;;;;16.15;3.80;;;;;;;16.36;100.00;98572.94;4970941;28;20050;-77
2022/12/11 03:30:06;;;;;;;13.55;2.80;;;;;;;16.30;100.00;98566.97;4971115;28;20039;-77
2022/12/11 03:32:39;;;;;;;15.35;4.00;;;;;;;15.99;100.00;98520.63;4971050;28;20031;-77
2022/12/11 03:35:12;;;;;;;11.20;2.90;;;;;;;16.01;100.00;98525.78;4971174;28;20057;-76
2022/12/11 03:37:40;;;;;;;8.60;2.67;;;;;;;15.91;100.00;98525.06;4970897;28;20030;-76
2022/12/11 03:40:14;;;;;;;10.68;3.40;;;;;;;15.80;100.00;98530.44;4970716;28;20043;-76
2022/12/11 03:42:43;;;;;;;11.70;3.58;;;;;;;15.85;100.00;98531.25;4970731;28;20038;-77
2022/12/11 03:45:09;;;;;;;9.82;3.13;;;;;;;15.82;100.00;98520.88;4970577;28;20526;-77
2022/12/11 03:47:38;;;;;;;14.73;3.08;;;;;;;15.83;100.00;98516.56;4970832;28;20058;-77
2022/12/11 03:50:06;;;;;;;9.55;2.88;;;;;;;15.80;100.00;98498.34;4970841;28;20092;-76
2022/12/11 03:52:32;;;;;;;9.30;2.72;;;;;;;15.77;100.00;98498.41;4970519;28;20049;-77
2022/12/11 03:55:01;;;;;;;9.60;2.63;;;;;;;15.84;100.00;98479.25;4970970;28;20035;-77
2022/12/11 03:57:31;;;;;;;12.27;2.80;;;;;;;15.77;100.00;98464.59;4970537;28;20042;-77
2022/12/11 03:59:57;;;;;;;11.57;2.83;;;;;;;15.76;100.00;98476.72;4972684;28;20049;-76
2022/12/11 04:02:22;;;;;;;15.30;3.65;;;;;;;15.84;100.00;98497.47;4972895;28;20031;-76
2022/12/11 04:04:48;;;;;;;15.68;3.20;;;;;;;15.93;100.00;98480.84;4972974;28;20034;-77
2022/12/11 04:07:16;;;;;;;14.07;3.17;;;;;;;15.94;100.00;98474.75;4987496;28;20031;-77
2022/12/11 04:09:41;;;;;;;7.68;2.38;;;;;;;16.01;100.00;98466.81;4972940;28;20030;-77
2022/12/11 04:12:07;;;;;;;8.85;2.55;;;;;;;16.15;100.00;98419.69;4991923;28;20072;-77
2022/12/11 04:24:13;;;;;;;11.75;2.75;;;;;;;16.19;100.00;98420.50;4991945;28;20038;-77
2022/12/11 04:25:31;;;;;;;13.52;3.40;;;;;;;16.30;100.00;98457.59;4991736;28;20500;-77
2022/12/11 04:27:57;;;;;;;10.27;2.53;;;;;;;16.32;100.00;98458.44;4992000;28;20030;-77
2022/12/11 04:30:24;;;;;;;12.68;2.58;;;;;;;16.11;100.00;98419.78;4991660;28;20030;-76
2022/12/11 04:32:51;;;;;;;16.63;2.88;;;;;;;16.28;100.00;98467.19;4992006;28;20041;-77
2022/12/11 04:35:17;;;;;;;15.27;3.22;;;;;;;16.33;100.00;98417.63;4992005;28;20022;-77
2022/12/11 04:37:43;;;;;;;13.10;3.13;;;;;;;16.34;100.00;98468.81;4992014;28;20449;-76
2022/12/11 04:40:12;;;;;;;12.38;3.45;;;;;;;16.33;100.00;98465.34;4991670;28;20401;-77
2022/12/11 04:42:38;;;;;;;14.13;4.20;;;;;;;16.32;100.00;98466.25;4991405;28;20073;-76
2022/12/11 04:45:05;;;;;;;15.00;3.95;;;;;;;16.32;100.00;98489.69;4983832;28;20042;-76
2022/12/11 04:47:31;;;;;;;11.55;3.22;;;;;;;16.27;100.00;98462.00;4986606;28;20030;-76
2022/12/11 04:49:56;;;;;;;12.40;2.70;;;;;;;16.32;100.00;98462.78;4991591;28;20121;-77
2022/12/11 04:52:22;;;;;;;13.68;3.25;;;;;;;16.27;100.00;98423.78;4991227;28;20109;-77
2022/12/11 04:54:47;;;;;;;16.17;3.55;;;;;;;16.28;100.00;98441.13;4991443;28;20088;-77
2022/12/11 04:57:13;;;;;;;12.27;2.67;;;;;;;16.16;100.00;98420.53;4987382;28;20473;-77
2022/12/11 04:59:38;;;;;;;10.38;3.92;;;;;;;16.17;100.00;98430.94;4985314;28;20473;-77
2022/12/11 05:02:04;;;;;;;16.98;3.55;;;;;;;16.04;100.00;98455.47;4984676;28;20066;-76
2022/12/11 05:04:31;;;;;;;7.70;2.15;;;;;;;16.09;100.00;98473.63;4980596;28;20113;-77
2022/12/11 05:06:57;;;;;;;13.90;2.67;;;;;;;16.08;100.00;98480.56;4979650;28;20022;-77
2022/12/11 05:09:22;;;;;;;10.57;3.13;;;;;;;16.04;100.00;98486.72;4989199;28;20081;-77
2022/12/11 05:11:48;;;;;;;15.23;3.22;;;;;;;15.63;100.00;98411.03;4982171;28;20033;-78
2022/12/11 05:14:13;;;;;;;11.30;3.40;;;;;;;15.99;100.00;98483.34;4991677;28;20398;-77
2022/12/11 05:16:39;;;;;;;14.30;3.60;;;;;;;15.99;100.00;98492.00;4990026;28;20030;-76
2022/12/11 05:19:04;;;;;;;14.05;3.97;;;;;;;16.02;100.00;98488.47;4989806;28;20054;-77
2022/12/11 05:21:30;;;;;;;15.57;3.13;;;;;;;16.06;100.00;98510.94;4979523;28;20049;-79
2022/12/11 05:23:55;;;;;;;13.10;3.15;;;;;;;16.08;100.00;98542.19;4971791;28;20071;-78
2022/12/11 05:26:20;;;;;;;20.27;3.17;;;;;;;16.05;100.00;98521.41;4971594;28;20030;-76
2022/12/11 05:28:52;;;;;;;10.15;2.72;;;;;;;16.00;100.00;98493.72;4971451;28;20469;-76
2022/12/11 05:31:22;;;;;;;11.45;2.90;;;;;;;16.06;100.00;98484.06;4971556;28;20122;-77
2022/12/11 05:33:49;;;;;;;13.73;3.67;;;;;;;16.05;100.00;98505.78;4971762;28;20037;-77
2022/12/11 05:36:19;;;;;;;11.02;3.25;;;;;;;16.04;100.00;98545.69;4971732;28;20031;-77
2022/12/11 05:38:44;;;;;;;16.48;3.65;;;;;;;15.99;100.00;98556.22;4971561;28;20022;-77
2022/12/11 05:41:15;;;;;;;11.90;3.45;;;;;;;16.01;100.00;98583.06;4971571;28;20030;-77
2022/12/11 05:43:41;;;;;;;15.48;4.30;;;;;;;15.98;100.00;98589.16;4974220;28;20055;-77
2022/12/11 05:46:13;;;;;;;17.10;4.22;;;;;;;15.92;100.00;98599.66;4975531;28;20059;-77
2022/12/11 05:48:39;;;;;;;20.38;4.68;;;;;;;15.90;100.00;98611.88;4975524;28;20022;-77
2022/12/11 05:51:07;;;;;;;21.55;4.43;;;;;;;15.91;100.00;98610.94;4975656;28;20042;-76
2022/12/11 05:53:34;;;;;;;14.05;3.83;;;;;;;15.78;100.00;98580.78;4975270;28;20572;-77
2022/12/11 05:56:14;;;;;;;19.73;4.28;;;;;;;15.92;100.00;98596.22;4975638;28;20029;-77
2022/12/11 05:58:41;;;;;;;18.25;3.83;;;;;;;15.91;100.00;98607.50;4975203;28;20035;-77
2022/12/11 06:01:16;;;;;;;15.57;4.10;;;;;;;15.92;100.00;98619.63;4975548;28;20105;-77
2022/12/11 06:03:42;;;;;;;17.30;3.90;;;;;;;15.94;100.00;98618.72;4974970;28;20023;-77
2022/12/11 06:06:08;;;;;;;16.50;4.05;;;;;;;15.99;100.00;98632.53;4973254;28;20394;-76
2022/12/11 06:08:34;;;;;;;15.32;3.95;;;;;;;16.01;100.00;98630.78;4975349;28;20050;-77
2022/12/11 06:11:00;;;;;;;17.33;4.15;;;;;;;15.98;100.00;98619.56;4973773;28;20473;-77
2022/12/11 06:13:26;;;;;;;11.73;2.97;;;;;;;16.04;100.00;98629.00;4975015;28;20023;-76
2022/12/11 06:15:52;;;;;;;16.13;3.45;;;;;;;15.98;100.00;98616.94;4975043;28;20429;-77
2022/12/11 06:18:17;;;;;;;16.98;3.80;;;;;;;16.09;100.00;98635.00;4975123;28;20085;-76
2022/12/11 06:20:43;;;;;;;13.98;3.80;;;;;;;16.09;100.00;98632.41;4975443;28;20106;-77
2022/12/11 06:23:08;;;;;;;13.65;3.60;;;;;;;16.13;100.00;98637.53;4974940;28;20027;-76
2022/12/11 06:25:34;;;;;;;13.23;3.22;;;;;;;16.15;100.00;98645.34;4974641;28;20570;-77
2022/12/11 06:27:59;;;;;;;14.55;4.03;;;;;;;16.21;100.00;98647.81;4974715;28;20110;-77
2022/12/11 06:30:25;;;;;;;12.15;3.10;;;;;;;16.24;100.00;98636.53;4974748;28;20034;-76
2022/12/11 06:32:50;;;;;;;13.80;3.33;;;;;;;16.23;100.00;98614.81;4974645;28;20106;-77
2022/12/11 06:35:16;;;;;;;9.80;3.15;;;;;;;16.21;100.00;98603.56;4973642;28;20465;-77
2022/12/11 06:37:41;;;;;;;13.48;3.90;;;;;;;16.26;100.00;98634.72;4974807;28;20066;-77
2022/12/11 06:40:10;;;;;;;11.38;3.55;;;;;;;16.29;100.00;98635.56;4974419;28;20027;-76
2022/12/11 06:42:35;;;;;;;16.63;3.15;;;;;;;16.37;100.00;98635.41;4973332;28;20043;-77
2022/12/11 06:45:02;;;;;;;17.15;3.90;;;;;;;16.31;100.00;98625.97;4974827;28;20053;-78
2022/12/11 06:47:29;;;;;;;15.43;3.80;;;;;;;16.33;100.00;98634.59;4976203;28;20019;-77
2022/12/11 06:49:55;;;;;;;18.92;4.05;;;;;;;16.36;100.00;98651.06;4994104;28;20030;-77
2022/12/11 06:52:26;;;;;;;12.70;3.40;;;;;;;16.36;100.00;98641.50;4994012;28;20040;-80
2022/12/11 06:54:52;;;;;;;14.48;3.47;;;;;;;16.26;100.00;98630.41;4992506;28;20042;-77
2022/12/11 06:57:18;;;;;;;16.10;3.60;;;;;;;16.30;100.00;98621.66;4993666;28;20040;-77
2022/12/11 06:59:44;;;;;;;14.80;3.42;;;;;;;16.26;100.00;98619.13;4993819;28;20030;-77
2022/12/11 07:02:16;;;;;;;16.15;3.85;;;;;;;16.21;100.00;98603.56;4993384;28;20033;-77
2022/12/11 07:04:42;;;;;;;13.35;4.20;;;;;;;16.25;100.00;98626.06;4993700;28;20038;-76
2022/12/11 07:07:08;;;;;;;14.25;3.25;;;;;;;16.23;100.00;98613.97;4993603;28;20041;-77
2022/12/11 07:09:37;;;;;;;15.18;3.38;;;;;;;16.23;100.00;98612.22;4993908;28;20038;-77
2022/12/11 07:12:03;;;;;;;15.07;2.58;;;;;;;16.21;100.00;98616.56;4993303;28;20441;-77
2022/12/11 07:14:29;;;;;;;15.73;3.65;;;;;;;16.11;100.00;98578.56;5008581;28;20065;-77
2022/12/11 07:16:56;;;;;;;5.50;2.03;;;;;;;16.28;100.00;98612.16;5008497;28;20022;-77
2022/12/11 07:19:21;;;;;;;10.18;2.70;;;;;;;16.37;100.00;98637.19;4993110;28;20030;-77
2022/12/11 07:21:47;;;;;;;10.15;2.25;;;;;;;16.37;100.00;98631.97;4993380;28;20022;-77
2022/12/11 07:24:12;;;;;;;9.15;2.05;;;;;;;16.42;100.00;98637.97;4993281;28;20378;-77
2022/12/11 07:26:38;;;;;;;13.65;2.92;;;;;;;16.36;100.00;98627.63;4993448;28;20040;-77
2022/12/11 07:29:03;;;;;;;6.57;1.67;;;;;;;16.36;100.00;98630.25;4993227;28;20035;-76
2022/12/11 07:31:29;;;;;;;11.27;2.75;;;;;;;16.47;100.00;98643.94;4992942;28;20081;-76
2022/12/11 07:34:01;;;;;;;10.52;2.30;;;;;;;16.37;100.00;98635.41;4993185;28;20038;-77
2022/12/11 07:36:28;;;;;;;10.82;1.92;;;;;;;16.48;100.00;98638.72;4993081;28;20030;-77
2022/12/11 07:38:53;;;;;;;8.65;2.10;;;;;;;16.52;100.00;98641.28;4992977;28;20026;-76
2022/12/11 07:41:19;;;;;;;9.73;2.70;;;;;;;16.48;100.00;98632.66;4992902;28;20508;-77
2022/12/11 07:43:45;;;;;;;13.50;2.65;;;;;;;16.55;100.00;98612.56;5007693;28;20054;-77
2022/12/11 07:46:14;;;;;;;8.77;2.22;;;;;;;16.55;100.00;98626.47;4992910;28;20038;-77
2022/12/11 07:48:42;;;;;;;10.50;2.33;;;;;;;16.66;100.00;98632.34;5008029;28;20038;-76
2022/12/11 07:51:19;;;;;;;9.88;2.60;;;;;;;16.73;100.00;98614.84;4992910;28;20109;-78
2022/12/11 07:53:47;;;;;;;7.95;2.20;;;;;;;16.89;100.00;98620.63;4992815;28;20030;-78
2022/12/11 07:56:14;;;;;;;11.23;2.58;;;;;;;16.95;100.00;98620.56;4992441;28;20547;-78
2022/12/11 07:58:39;;;;;;;9.75;2.28;;;;;;;17.00;100.00;98628.28;4992569;28;20092;-77
2022/12/11 08:01:14;;;;;;;9.73;2.47;;;;;;;17.21;100.00;98631.34;4991399;28;20058;-77
2022/12/11 08:03:40;;;;;;;12.05;2.97;;;;;;;17.35;100.00;98638.94;4992747;28;20022;-77
2022/12/11 08:06:07;;;;;;;10.57;2.67;;;;;;;17.33;100.00;98638.09;4991845;28;20485;-77
2022/12/11 08:08:33;;;;;;;12.38;2.83;;;;;;;17.24;100.00;98620.88;4992284;28;20034;-76
2022/12/11 08:11:03;;;;;;;13.13;2.95;;;;;;;17.33;100.00;98643.31;4992386;28;20030;-77
2022/12/11 08:13:29;;;;;;;10.23;2.80;;;;;;;17.22;100.00;98639.19;4992191;28;20030;-77
2022/12/11 08:15:55;;;;;;;10.25;2.75;;;;;;;17.23;100.00;98651.28;4992476;28;20030;-77
2022/12/11 08:18:20;;;;;;;11.55;2.67;;;;;;;17.14;100.00;98631.47;4990998;28;20088;-77
2022/12/11 08:20:46;;;;;;;10.02;2.83;;;;;;;17.14;100.00;98630.63;4992231;28;20045;-80
2022/12/11 08:23:12;;;;;;;9.10;2.85;;;;;;;17.16;100.00;98634.06;4992234;28;20039;-77
2022/12/11 08:25:37;;;;;;;7.35;2.10;;;;;;;17.05;100.00;98623.84;4991905;28;20096;-77
2022/12/11 08:28:03;;;;;;;6.63;2.17;;;;;;;16.98;100.00;98628.34;4992164;28;20034;-76
2022/12/11 08:30:29;;;;;;;7.00;1.60;;;;;;;16.93;100.00;98624.91;4992253;28;20027;-77
2022/12/11 08:32:54;;;;;;;7.25;1.85;;;;;;;16.95;100.00;98623.16;4992028;28;20030;-77
2022/12/11 08:35:20;;;;;;;5.55;1.77;;;;;;;16.94;100.00;98612.78;4992090;28;20126;-77
2022/12/11 08:37:45;;;;;;;3.85;1.50;;;;;;;16.91;100.00;98587.63;4991998;28;20027;-78
2022/12/11 08:40:12;;;;;;;8.77;2.15;;;;;;;17.09;100.00;98612.47;4991885;28;20110;-77
2022/12/11 08:42:38;;;;;;;6.43;1.75;;;;;;;17.35;100.00;98620.69;4991962;28;20501;-77
2022/12/11 08:45:05;;;;;;;6.22;1.52;;;;;;;17.27;100.00;98585.16;4991910;28;20061;-77
2022/12/11 08:47:31;;;;;;;6.63;1.80;;;;;;;17.54;100.00;98613.31;4991543;28;20121;-77
2022/12/11 08:49:56;;;;;;;9.68;2.15;;;;;;;17.61;100.00;98612.28;4991678;28;20105;-77
2022/12/11 08:52:22;;;;;;;6.88;1.52;;;;;;;17.61;100.00;98626.19;4991597;28;20030;-77
2022/12/11 08:54:48;;;;;;;7.13;2.22;;;;;;;17.60;100.00;98645.34;4990473;28;20100;-78
2022/12/11 08:57:13;;;;;;;8.45;2.47;;;;;;;17.42;100.00;98596.16;4991509;28;20032;-77
2022/12/11 08:59:39;;;;;;;8.82;2.17;;;;;;;17.35;100.00;98587.63;4992001;28;20034;-76
2022/12/11 09:02:04;;;;;;;8.02;2.33;;;;;;;17.50;100.00;98622.94;4991583;28;20456;-77
2022/12/11 09:04:30;;;;;;;10.55;2.20;;;;;;;17.44;100.00;98608.28;4991465;28;20101;-77
2022/12/11 09:06:55;;;;;;;15.95;2.70;;;;;;;17.41;100.00;98615.34;4991372;28;20085;-77
2022/12/11 09:09:21;;;;;;;7.22;2.10;;;;;;;17.18;100.00;98577.53;4990072;28;20515;-76
2022/12/11 09:11:46;;;;;;;7.93;2.33;;;;;;;17.54;100.00;98619.38;4990227;28;20022;-78
2022/12/11 09:14:12;;;;;;;8.93;2.42;;;;;;;17.60;100.00;98611.41;4991451;28;20093;-77
2022/12/11 09:16:39;;;;;;;14.32;2.75;;;;;;;17.54;100.00;98603.72;4990781;28;20470;-77
2022/12/11 09:19:06;;;;;;;16.73;4.28;;;;;;;17.53;100.00;98596.78;4990843;28;20073;-77
2022/12/11 09:21:32;;;;;;;13.93;3.92;;;;;;;17.78;100.00;98628.44;4991088;28;20089;-77
2022/12/11 09:23:59;;;;;;;15.10;5.38;;;;;;;17.81;100.00;98619.69;4991220;28;20420;-77
2022/12/11 09:26:27;;;;;;;16.05;3.55;;;;;;;17.85;100.00;98613.50;4991221;28;20126;-78
2022/12/11 09:28:53;;;;;;;18.13;4.40;;;;;;;17.83;100.00;98614.41;4991078;28;20117;-77
2022/12/11 09:31:23;;;;;;;18.80;5.15;;;;;;;17.94;100.00;98618.56;4991014;28;20023;-77
2022/12/11 09:33:50;;;;;;;21.70;4.10;;;;;;;18.04;100.00;98623.53;4991368;28;20049;-76
2022/12/11 09:36:17;;;;;;;14.10;3.33;;;;;;;17.91;100.00;98591.63;4990942;28;20034;-77
2022/12/11 09:38:43;;;;;;;10.73;2.53;;;;;;;18.01;100.00;98608.81;4991292;28;20061;-77
2022/12/11 09:41:21;;;;;;;9.30;2.30;;;;;;;18.01;100.00;98618.41;4991230;28;20096;-77
2022/12/11 09:44:11;;;;;;;13.27;3.83;;;;;;;18.02;100.00;98614.88;5005969;28;20070;-77
2022/12/11 09:46:38;;;;;;;7.00;2.50;;;;;;;17.97;100.00;98601.06;4991125;28;20093;-77
2022/12/11 09:49:10;;;;;;;10.90;2.28;;;;;;;17.98;100.00;98613.25;4991064;28;20037;-77
2022/12/11 09:51:59;;;;;;;9.50;2.70;;;;;;;18.00;100.00;98617.53;4991175;28;20026;-77
2022/12/11 09:54:24;;;;;;;10.70;3.35;;;;;;;18.00;100.00;98604.47;4989859;28;20033;-75
2022/12/11 09:57:00;;;;;;;9.35;2.33;;;;;;;18.01;100.00;98607.97;4991167;28;20109;-77
2022/12/11 09:59:52;;;;;;;9.98;3.28;;;;;;;18.04;100.00;98600.03;4990690;28;20145;-77
2022/12/11 10:02:40;;;;;;;11.23;4.07;;;;;;;17.93;100.00;98567.19;4990954;28;20105;-76
2022/12/11 10:05:33;;;;;;;16.33;5.35;;;;;;;18.01;100.00;98580.09;4990777;28;20512;-77
2022/12/11 10:08:19;;;;;;;14.73;5.95;;;;;;;18.02;100.00;98566.16;4990825;28;20038;-77
2022/12/11 10:11:15;;;;;;;12.02;3.53;;;;;;;17.99;100.00;98566.19;4988275;28;20049;-77
2022/12/11 10:13:40;;;;;;;15.00;5.13;;;;;;;17.77;100.00;98530.16;4988373;28;20034;-77
2022/12/11 10:16:27;;;;;;;10.68;2.33;;;;;;;17.88;100.00;98560.34;4988252;28;20045;-78
2022/12/11 10:18:53;;;;;;;7.05;1.85;;;;;;;17.85;100.00;98550.84;4988432;28;20049;-77
2022/12/11 10:21:19;;;;;;;9.65;2.53;;;;;;;17.67;100.00;98517.34;4988365;28;20046;-77
2022/12/11 10:24:10;;;;;;;13.38;2.53;;;;;;;17.76;100.00;98524.97;4988305;28;20413;-78
2022/12/11 10:26:38;;;;;;;7.78;2.10;;;;;;;17.86;100.00;98544.72;4988338;28;20034;-77
2022/12/11 10:29:11;;;;;;;6.05;1.65;;;;;;;17.83;100.00;98549.16;4989564;28;20084;-77
2022/12/11 10:31:56;;;;;;;9.85;2.72;;;;;;;17.88;100.00;98557.75;4991621;28;20125;-78
2022/12/11 10:34:38;;;;;;;10.88;2.70;;;;;;;17.94;100.00;98558.50;4991641;28;20034;-77
2022/12/11 10:37:04;;;;;;;12.82;2.80;;;;;;;17.99;100.00;98554.91;4991661;28;20139;-77
2022/12/11 10:39:30;;;;;;;12.02;2.47;;;;;;;17.94;100.00;98548.06;4991309;28;20117;-78
2022/12/11 10:41:55;;;;;;;10.48;2.47;;;;;;;18.05;100.00;98567.81;4974972;28;20061;-77
2022/12/11 10:44:29;;;;;;;14.93;2.78;;;;;;;17.98;100.00;98556.69;4990833;28;20576;-77
2022/12/11 10:47:14;;;;;;;14.50;3.88;;;;;;;17.84;100.00;98527.41;4991532;28;20149;-78
2022/12/11 10:49:51;;;;;;;12.95;3.50;;;;;;;17.89;100.00;98552.47;4993517;28;20517;-77
2022/12/11 10:52:31;;;;;;;13.48;2.90;;;;;;;18.07;100.00;98568.66;4993669;28;20030;-77
2022/12/11 10:55:19;;;;;;;8.73;2.40;;;;;;;17.84;100.00;98543.06;4993553;28;20037;-77
2022/12/11 10:57:52;;;;;;;12.77;2.22;;;;;;;17.78;100.00;98559.69;4993383;28;20027;-78
2022/12/11 11:00:38;;;;;;;13.52;3.15;;;;;;;17.78;100.00;98559.69;4993516;28;20033;-77
2022/12/11 11:03:06;;;;;;;15.02;2.80;;;;;;;17.75;100.00;98560.63;4993390;28;20027;-77
2022/12/11 11:05:36;;;;;;;12.65;2.65;;;;;;;17.62;100.00;98523.53;5008204;28;20386;-78
2022/12/11 11:08:22;;;;;;;;;;;;;;;17.77;100.00;98531.91;4994018;28;20075;-78
2022/12/11 11:11:00;;;;;;;13.48;2.75;;;;;;;17.78;100.00;98529.25;4993282;28;20388;-77
2022/12/11 11:13:28;;;;;;;12.77;2.47;;;;;;;17.79;100.00;98522.28;4993018;28;20561;-78
2022/12/11 11:16:03;;;;;;;15.48;3.20;;;;;;;17.84;100.00;98523.00;4991821;28;20481;-78
2022/12/11 11:18:30;;;;;;;15.82;3.42;;;;;;;17.81;100.00;98515.28;4992998;28;20084;-77
2022/12/11 11:20:57;;;;;;;13.90;3.30;;;;;;;17.91;100.00;98519.38;4993134;28;20454;-78
2022/12/11 11:23:24;;;;;;;16.10;3.50;;;;;;;17.92;100.00;98538.53;4993157;28;20049;-77
2022/12/11 11:25:56;;;;;;;16.27;4.10;;;;;;;17.98;100.00;98543.63;4992925;28;20034;-77
2022/12/11 11:28:46;;;;;;;11.05;2.55;;;;;;;18.03;100.00;98538.28;4992901;28;20045;-78
2022/12/11 11:31:14;;;;;;;12.45;3.30;;;;;;;17.93;100.00;98517.59;4993064;28;20064;-77
2022/12/11 11:33:57;;;;;;;11.02;3.05;;;;;;;18.18;100.00;98540.53;4992840;28;20026;-78
2022/12/11 11:36:26;;;;;;;11.60;2.85;;;;;;;18.24;99.80;98548.19;4992846;28;20030;-78